sensor_id;sensor_type;location;lat;lon;timestamp;pressure;altitude;pressure_sealevel;temperature;humidity
8059;BME280;4072;42.668;23.396;2023-05-20T00:01:54;95417.56;;;13.17;100.00
8059;BME280;4072;42.668;23.396;2023-05-20T00:04:22;95414.56;;;13.15;100.00
8059;BME280;4072;42.668;23.396;2023-05-20T00:06:50;95400.69;;;13.13;100.00
8059;BME280;4072;42.668;23.396;2023-05-20T00:09:18;95388.59;;;12.87;100.00
8059;BME280;4072;42.668;23.396;2023-05-20T00:11:46;95321.94;;;12.50;100.00
8059;BME280;4072;42.668;23.396;2023-05-20T00:14:14;95409.44;;;12.99;100.00
8059;BME280;4072;42.668;23.396;2023-05-20T00:16:43;95420.56;;;12.92;100.00
8059;BME280;4072;42.668;23.396;2023-05-20T00:19:11;95416.19;;;12.94;100.00
8059;BME280;4072;42.668;23.396;2023-05-20T00:21:39;95421.91;;;12.87;100.00
8059;BME280;4072;42.668;23.396;2023-05-20T00:24:07;95407.28;;;12.85;100.00
8059;BME280;4072;42.668;23.396;2023-05-20T00:26:35;95382.56;;;12.65;100.00
8059;BME280;4072;42.668;23.396;2023-05-20T00:29:03;95377.44;;;12.67;100.00
8059;BME280;4072;42.668;23.396;2023-05-20T00:31:31;95400.97;;;12.79;100.00
8059;BME280;4072;42.668;23.396;2023-05-20T00:34:00;95396.72;;;12.78;100.00
8059;BME280;4072;42.668;23.396;2023-05-20T00:36:29;95402.63;;;12.85;100.00
8059;BME280;4072;42.668;23.396;2023-05-20T00:38:57;95399.16;;;12.85;100.00
8059;BME280;4072;42.668;23.396;2023-05-20T00:41:25;95371.88;;;12.70;100.00
8059;BME280;4072;42.668;23.396;2023-05-20T00:43:54;95391.91;;;12.73;100.00
8059;BME280;4072;42.668;23.396;2023-05-20T00:46:22;95380.16;;;12.67;100.00
8059;BME280;4072;42.668;23.396;2023-05-20T00:48:50;95383.78;;;12.91;100.00
8059;BME280;4072;42.668;23.396;2023-05-20T00:51:20;95384.69;;;12.88;100.00
8059;BME280;4072;42.668;23.396;2023-05-20T00:53:49;95367.16;;;12.89;100.00
8059;BME280;4072;42.668;23.396;2023-05-20T00:56:17;95355.13;;;12.72;100.00
8059;BME280;4072;42.668;23.396;2023-05-20T00:58:45;95362.06;;;12.73;100.00
8059;BME280;4072;42.668;23.396;2023-05-20T01:01:13;95385.88;;;12.96;100.00
8059;BME280;4072;42.668;23.396;2023-05-20T01:03:41;95385.00;;;12.99;100.00
8059;BME280;4072;42.668;23.396;2023-05-20T01:06:09;95337.63;;;12.64;100.00
8059;BME280;4072;42.668;23.396;2023-05-20T01:08:39;95391.63;;;12.80;100.00
8059;BME280;4072;42.668;23.396;2023-05-20T01:11:11;95329.59;;;12.15;100.00
8059;BME280;4072;42.668;23.396;2023-05-20T01:13:44;95399.16;;;12.58;100.00
8059;BME280;4072;42.668;23.396;2023-05-20T01:16:14;95370.75;;;12.32;100.00
8059;BME280;4072;42.668;23.396;2023-05-20T01:18:44;95389.47;;;12.39;100.00
8059;BME280;4072;42.668;23.396;2023-05-20T01:21:14;95390.97;;;12.40;100.00
8059;BME280;4072;42.668;23.396;2023-05-20T01:23:45;95388.56;;;12.42;100.00
8059;BME280;4072;42.668;23.396;2023-05-20T01:26:13;95384.50;;;12.37;100.00
8059;BME280;4072;42.668;23.396;2023-05-20T01:28:42;95390.97;;;12.31;100.00
8059;BME280;4072;42.668;23.396;2023-05-20T01:31:14;95383.81;;;12.06;100.00
8059;BME280;4072;42.668;23.396;2023-05-20T01:33:49;95302.75;;;11.50;100.00
8059;BME280;4072;42.668;23.396;2023-05-20T01:36:20;95401.00;;;12.12;100.00
8059;BME280;4072;42.668;23.396;2023-05-20T01:38:50;95359.03;;;11.77;100.00
8059;BME280;4072;42.668;23.396;2023-05-20T01:41:20;95392.66;;;11.88;100.00
8059;BME280;4072;42.668;23.396;2023-05-20T01:43:51;95393.31;;;12.11;100.00
8059;BME280;4072;42.668;23.396;2023-05-20T01:46:19;95392.13;;;12.12;100.00
8059;BME280;4072;42.668;23.396;2023-05-20T01:48:47;95386.06;;;12.08;100.00
8059;BME280;4072;42.668;23.396;2023-05-20T01:51:15;95392.41;;;12.05;100.00
8059;BME280;4072;42.668;23.396;2023-05-20T01:53:43;95354.03;;;11.66;100.00
8059;BME280;4072;42.668;23.396;2023-05-20T01:56:12;95389.34;;;11.93;100.00
8059;BME280;4072;42.668;23.396;2023-05-20T01:58:40;95386.94;;;11.96;100.00
8059;BME280;4072;42.668;23.396;2023-05-20T02:01:08;95376.09;;;11.96;100.00
8059;BME280;4072;42.668;23.396;2023-05-20T02:03:36;95376.06;;;11.86;100.00
8059;BME280;4072;42.668;23.396;2023-05-20T02:06:04;95378.66;;;11.90;100.00
8059;BME280;4072;42.668;23.396;2023-05-20T02:08:32;95382.28;;;11.96;100.00
8059;BME280;4072;42.668;23.396;2023-05-20T02:11:00;95379.53;;;11.87;100.00
8059;BME280;4072;42.668;23.396;2023-05-20T02:13:30;95386.00;;;11.80;100.00
8059;BME280;4072;42.668;23.396;2023-05-20T02:15:58;95369.41;;;11.69;100.00
8059;BME280;4072;42.668;23.396;2023-05-20T02:18:26;95286.63;;;11.07;100.00
8059;BME280;4072;42.668;23.396;2023-05-20T02:20:54;95347.50;;;11.33;100.00
8059;BME280;4072;42.668;23.396;2023-05-20T02:23:22;95372.53;;;11.37;100.00
8059;BME280;4072;42.668;23.396;2023-05-20T02:25:50;95389.41;;;11.41;100.00
8059;BME280;4072;42.668;23.396;2023-05-20T02:28:18;95353.97;;;11.27;100.00
8059;BME280;4072;42.668;23.396;2023-05-20T02:30:47;95356.38;;;11.25;100.00
8059;BME280;4072;42.668;23.396;2023-05-20T02:33:17;95376.25;;;11.31;100.00
8059;BME280;4072;42.668;23.396;2023-05-20T02:35:45;95366.19;;;11.31;100.00
8059;BME280;4072;42.668;23.396;2023-05-20T02:38:14;95345.97;;;11.23;100.00
8059;BME280;4072;42.668;23.396;2023-05-20T02:40:43;95334.66;;;11.16;100.00
8059;BME280;4072;42.668;23.396;2023-05-20T02:43:11;95369.69;;;11.41;100.00
8059;BME280;4072;42.668;23.396;2023-05-20T02:45:39;95367.16;;;11.46;100.00
8059;BME280;4072;42.668;23.396;2023-05-20T02:48:09;95351.16;;;11.39;100.00
8059;BME280;4072;42.668;23.396;2023-05-20T02:50:37;95353.34;;;11.53;100.00
8059;BME280;4072;42.668;23.396;2023-05-20T02:53:06;95368.72;;;11.56;100.00
8059;BME280;4072;42.668;23.396;2023-05-20T02:55:34;95361.19;;;11.60;100.00
8059;BME280;4072;42.668;23.396;2023-05-20T02:58:02;95347.56;;;11.42;100.00
8059;BME280;4072;42.668;23.396;2023-05-20T03:00:30;95369.75;;;11.59;100.00
8059;BME280;4072;42.668;23.396;2023-05-20T03:03:01;95362.72;;;11.61;100.00
8059;BME280;4072;42.668;23.396;2023-05-20T03:05:30;95376.59;;;11.63;100.00
8059;BME280;4072;42.668;23.396;2023-05-20T03:07:59;95382.25;;;11.56;100.00
8059;BME280;4072;42.668;23.396;2023-05-20T03:10:27;95379.53;;;11.56;100.00
8059;BME280;4072;42.668;23.396;2023-05-20T03:13:01;95386.44;;;11.48;100.00
8059;BME280;4072;42.668;23.396;2023-05-20T03:15:29;95400.44;;;11.47;100.00
8059;BME280;4072;42.668;23.396;2023-05-20T03:17:57;95399.81;;;11.43;100.00
8059;BME280;4072;42.668;23.396;2023-05-20T03:20:25;95405.03;;;11.37;100.00
8059;BME280;4072;42.668;23.396;2023-05-20T03:22:55;95403.31;;;11.31;100.00
8059;BME280;4072;42.668;23.396;2023-05-20T03:25:23;95358.41;;;10.90;100.00
8059;BME280;4072;42.668;23.396;2023-05-20T03:27:52;95397.03;;;11.34;100.00
8059;BME280;4072;42.668;23.396;2023-05-20T03:30:20;95392.41;;;11.43;100.00
8059;BME280;4072;42.668;23.396;2023-05-20T03:32:49;95370.34;;;11.23;100.00
8059;BME280;4072;42.668;23.396;2023-05-20T03:35:17;95398.53;;;11.35;100.00
8059;BME280;4072;42.668;23.396;2023-05-20T03:37:46;95398.50;;;11.26;100.00
8059;BME280;4072;42.668;23.396;2023-05-20T03:40:15;95386.16;;;11.25;100.00
8059;BME280;4072;42.668;23.396;2023-05-20T03:42:43;95408.72;;;11.52;100.00
8059;BME280;4072;42.668;23.396;2023-05-20T03:45:11;95406.84;;;11.62;100.00
8059;BME280;4072;42.668;23.396;2023-05-20T03:47:39;95404.00;;;11.65;100.00
8059;BME280;4072;42.668;23.396;2023-05-20T03:50:08;95372.72;;;11.43;100.00
8059;BME280;4072;42.668;23.396;2023-05-20T03:52:36;95402.72;;;11.88;100.00
8059;BME280;4072;42.668;23.396;2023-05-20T03:55:05;95403.22;;;11.96;100.00
8059;BME280;4072;42.668;23.396;2023-05-20T03:57:35;95407.13;;;11.95;100.00
8059;BME280;4072;42.668;23.396;2023-05-20T04:00:03;95408.84;;;12.10;100.00
8059;BME280;4072;42.668;23.396;2023-05-20T04:02:36;95414.72;;;12.18;100.00
8059;BME280;4072;42.668;23.396;2023-05-20T04:05:05;95419.91;;;12.34;100.00
8059;BME280;4072;42.668;23.396;2023-05-20T04:07:36;95422.63;;;12.43;100.00
8059;BME280;4072;42.668;23.396;2023-05-20T04:10:04;95419.78;;;12.46;100.00
8059;BME280;4072;42.668;23.396;2023-05-20T04:12:32;95380.41;;;12.24;100.00
8059;BME280;4072;42.668;23.396;2023-05-20T04:15:06;95420.06;;;12.39;100.00
8059;BME280;4072;42.668;23.396;2023-05-20T04:17:34;95390.34;;;12.36;100.00
8059;BME280;4072;42.668;23.396;2023-05-20T04:20:05;95416.94;;;12.59;100.00
8059;BME280;4072;42.668;23.396;2023-05-20T04:22:33;95367.63;;;12.42;100.00
8059;BME280;4072;42.668;23.396;2023-05-20T04:25:01;95410.31;;;12.78;100.00
8059;BME280;4072;42.668;23.396;2023-05-20T04:27:30;95422.56;;;12.91;100.00
8059;BME280;4072;42.668;23.396;2023-05-20T04:30:00;95419.97;;;12.97;100.00
8059;BME280;4072;42.668;23.396;2023-05-20T04:32:31;95392.19;;;12.93;100.00
8059;BME280;4072;42.668;23.396;2023-05-20T04:35:00;95410.31;;;13.23;100.00
8059;BME280;4072;42.668;23.396;2023-05-20T04:37:28;95413.28;;;13.52;100.00
8059;BME280;4072;42.668;23.396;2023-05-20T04:39:57;95416.25;;;13.72;100.00
8059;BME280;4072;42.668;23.396;2023-05-20T04:42:25;95421.50;;;13.84;100.00
8059;BME280;4072;42.668;23.396;2023-05-20T04:44:53;95402.00;;;13.86;100.00
8059;BME280;4072;42.668;23.396;2023-05-20T04:47:21;95420.31;;;14.18;100.00
8059;BME280;4072;42.668;23.396;2023-05-20T04:49:51;95427.97;;;13.96;100.00
8059;BME280;4072;42.668;23.396;2023-05-20T04:52:19;95433.56;;;13.92;100.00
8059;BME280;4072;42.668;23.396;2023-05-20T04:54:47;95434.28;;;14.02;100.00
8059;BME280;4072;42.668;23.396;2023-05-20T04:57:17;95434.00;;;14.32;100.00
8059;BME280;4072;42.668;23.396;2023-05-20T04:59:46;95432.72;;;14.75;100.00
8059;BME280;4072;42.668;23.396;2023-05-20T05:02:14;95433.00;;;14.77;100.00
8059;BME280;4072;42.668;23.396;2023-05-20T05:04:42;95433.16;;;14.97;100.00
8059;BME280;4072;42.668;23.396;2023-05-20T05:07:12;95425.75;;;15.12;100.00
8059;BME280;4072;42.668;23.396;2023-05-20T05:09:40;95433.09;;;15.44;100.00
8059;BME280;4072;42.668;23.396;2023-05-20T05:12:08;95438.75;;;15.84;100.00
8059;BME280;4072;42.668;23.396;2023-05-20T05:14:36;95419.34;;;16.11;100.00
8059;BME280;4072;42.668;23.396;2023-05-20T05:17:04;95418.50;;;16.54;100.00
8059;BME280;4072;42.668;23.396;2023-05-20T05:19:32;95391.03;;;16.43;100.00
8059;BME280;4072;42.668;23.396;2023-05-20T05:22:00;95421.66;;;17.07;100.00
8059;BME280;4072;42.668;23.396;2023-05-20T05:24:29;95420.22;;;17.37;100.00
8059;BME280;4072;42.668;23.396;2023-05-20T05:26:57;95415.06;;;17.65;100.00
8059;BME280;4072;42.668;23.396;2023-05-20T05:29:25;95415.34;;;17.98;100.00
8059;BME280;4072;42.668;23.396;2023-05-20T05:31:53;95361.50;;;17.59;100.00
8059;BME280;4072;42.668;23.396;2023-05-20T05:34:21;95408.56;;;18.25;100.00
8059;BME280;4072;42.668;23.396;2023-05-20T05:36:49;95353.59;;;17.92;100.00
8059;BME280;4072;42.668;23.396;2023-05-20T05:39:17;95411.06;;;18.65;100.00
8059;BME280;4072;42.668;23.396;2023-05-20T05:41:46;95372.50;;;18.74;100.00
8059;BME280;4072;42.668;23.396;2023-05-20T05:44:14;95402.78;;;19.07;99.91
8059;BME280;4072;42.668;23.396;2023-05-20T05:46:42;95338.53;;;18.55;99.39
8059;BME280;4072;42.668;23.396;2023-05-20T05:49:10;95377.06;;;18.93;99.06
8059;BME280;4072;42.668;23.396;2023-05-20T05:51:38;95411.69;;;19.60;95.45
8059;BME280;4072;42.668;23.396;2023-05-20T05:54:06;95415.44;;;19.96;92.67
8059;BME280;4072;42.668;23.396;2023-05-20T05:56:34;95405.47;;;19.82;92.20
8059;BME280;4072;42.668;23.396;2023-05-20T05:59:04;95408.19;;;19.60;91.75
8059;BME280;4072;42.668;23.396;2023-05-20T06:01:32;95416.88;;;19.42;96.28
8059;BME280;4072;42.668;23.396;2023-05-20T06:04:00;95387.81;;;19.08;98.15
8059;BME280;4072;42.668;23.396;2023-05-20T06:06:29;95404.41;;;19.30;100.00
8059;BME280;4072;42.668;23.396;2023-05-20T06:08:57;95396.97;;;19.58;96.14
8059;BME280;4072;42.668;23.396;2023-05-20T06:11:25;95400.69;;;19.49;91.02
8059;BME280;4072;42.668;23.396;2023-05-20T06:13:53;95400.19;;;19.51;95.24
8059;BME280;4072;42.668;23.396;2023-05-20T06:16:22;95375.50;;;20.06;88.72
8059;BME280;4072;42.668;23.396;2023-05-20T06:18:50;95361.03;;;20.22;84.03
8059;BME280;4072;42.668;23.396;2023-05-20T06:21:18;95386.16;;;20.70;83.13
8059;BME280;4072;42.668;23.396;2023-05-20T06:23:46;95391.09;;;20.83;81.11
8059;BME280;4072;42.668;23.396;2023-05-20T06:26:14;95388.19;;;21.32;76.56
8059;BME280;4072;42.668;23.396;2023-05-20T06:28:42;95386.69;;;21.31;75.96
8059;BME280;4072;42.668;23.396;2023-05-20T06:31:10;95390.34;;;21.45;75.01
8059;BME280;4072;42.668;23.396;2023-05-20T06:33:40;95379.34;;;21.85;71.82
8059;BME280;4072;42.668;23.396;2023-05-20T06:36:08;95380.50;;;21.60;71.05
8059;BME280;4072;42.668;23.396;2023-05-20T06:38:36;95372.00;;;21.58;70.30
8059;BME280;4072;42.668;23.396;2023-05-20T06:41:04;95372.19;;;21.25;73.57
8059;BME280;4072;42.668;23.396;2023-05-20T06:43:32;95371.59;;;21.43;75.91
8059;BME280;4072;42.668;23.396;2023-05-20T06:46:00;95371.28;;;21.52;74.62
8059;BME280;4072;42.668;23.396;2023-05-20T06:48:28;95366.56;;;21.47;65.17
8059;BME280;4072;42.668;23.396;2023-05-20T06:50:58;95356.09;;;21.40;66.86
8059;BME280;4072;42.668;23.396;2023-05-20T06:53:26;95323.28;;;21.07;69.49
8059;BME280;4072;42.668;23.396;2023-05-20T06:55:54;95371.22;;;21.63;69.20
8059;BME280;4072;42.668;23.396;2023-05-20T06:58:22;95374.00;;;22.22;63.18
8059;BME280;4072;42.668;23.396;2023-05-20T07:00:50;95376.22;;;22.00;65.91
8059;BME280;4072;42.668;23.396;2023-05-20T07:03:18;95375.13;;;22.38;64.50
8059;BME280;4072;42.668;23.396;2023-05-20T07:05:46;95371.13;;;22.09;64.26
8059;BME280;4072;42.668;23.396;2023-05-20T07:08:16;95351.75;;;22.44;64.68
8059;BME280;4072;42.668;23.396;2023-05-20T07:10:44;95372.44;;;22.80;63.54
8059;BME280;4072;42.668;23.396;2023-05-20T07:13:12;95374.97;;;23.40;62.62
8059;BME280;4072;42.668;23.396;2023-05-20T07:15:40;95372.56;;;23.68;56.44
8059;BME280;4072;42.668;23.396;2023-05-20T07:18:08;95369.63;;;23.97;55.36
8059;BME280;4072;42.668;23.396;2023-05-20T07:20:37;95350.34;;;24.23;54.25
8059;BME280;4072;42.668;23.396;2023-05-20T07:23:05;95358.59;;;24.81;53.17
8059;BME280;4072;42.668;23.396;2023-05-20T07:25:34;95340.66;;;25.34;46.24
8059;BME280;4072;42.668;23.396;2023-05-20T07:28:02;95290.91;;;24.82;46.43
8059;BME280;4072;42.668;23.396;2023-05-20T07:30:30;95373.47;;;25.30;45.85
8059;BME280;4072;42.668;23.396;2023-05-20T07:32:58;95365.38;;;25.32;45.58
8059;BME280;4072;42.668;23.396;2023-05-20T07:35:26;95360.25;;;25.90;43.79
8059;BME280;4072;42.668;23.396;2023-05-20T07:37:54;95368.69;;;25.64;44.07
8059;BME280;4072;42.668;23.396;2023-05-20T07:40:22;95370.88;;;25.45;44.85
8059;BME280;4072;42.668;23.396;2023-05-20T07:42:52;95372.44;;;25.07;46.43
8059;BME280;4072;42.668;23.396;2023-05-20T07:45:20;95365.59;;;25.21;48.46
8059;BME280;4072;42.668;23.396;2023-05-20T07:47:48;95362.31;;;24.70;47.10
8059;BME280;4072;42.668;23.396;2023-05-20T07:50:16;95364.88;;;24.94;46.98
8059;BME280;4072;42.668;23.396;2023-05-20T07:52:43;95363.00;;;25.23;45.57
8059;BME280;4072;42.668;23.396;2023-05-20T07:55:22;95363.97;;;25.25;48.28
8059;BME280;4072;42.668;23.396;2023-05-20T07:57:51;95365.13;;;25.43;46.24
8059;BME280;4072;42.668;23.396;2023-05-20T08:00:19;95364.38;;;25.42;45.43
8059;BME280;4072;42.668;23.396;2023-05-20T08:02:47;95361.66;;;25.03;45.79
8059;BME280;4072;42.668;23.396;2023-05-20T08:05:16;95367.94;;;24.91;46.04
8059;BME280;4072;42.668;23.396;2023-05-20T08:07:44;95369.88;;;24.96;47.55
8059;BME280;4072;42.668;23.396;2023-05-20T08:10:12;95366.06;;;24.86;45.73
8059;BME280;4072;42.668;23.396;2023-05-20T08:12:40;95369.28;;;23.69;48.33
8059;BME280;4072;42.668;23.396;2023-05-20T08:15:10;95366.31;;;23.49;49.36
8059;BME280;4072;42.668;23.396;2023-05-20T08:17:38;95352.75;;;23.51;47.67
8059;BME280;4072;42.668;23.396;2023-05-20T08:20:07;95352.81;;;23.27;48.61
8059;BME280;4072;42.668;23.396;2023-05-20T08:22:36;95361.16;;;23.40;47.98
8059;BME280;4072;42.668;23.396;2023-05-20T08:25:07;95356.97;;;23.15;50.72
8059;BME280;4072;42.668;23.396;2023-05-20T08:27:35;95321.75;;;22.83;48.83
8059;BME280;4072;42.668;23.396;2023-05-20T08:30:05;95327.28;;;22.83;50.13
8059;BME280;4072;42.668;23.396;2023-05-20T08:32:36;95352.19;;;23.15;50.32
8059;BME280;4072;42.668;23.396;2023-05-20T08:35:06;95341.66;;;23.14;51.00
8059;BME280;4072;42.668;23.396;2023-05-20T08:37:34;95342.34;;;23.20;51.76
8059;BME280;4072;42.668;23.396;2023-05-20T08:40:02;95333.38;;;22.95;53.35
8059;BME280;4072;42.668;23.396;2023-05-20T08:42:32;95341.78;;;22.84;53.49
8059;BME280;4072;42.668;23.396;2023-05-20T08:45:00;95329.50;;;22.85;55.51
8059;BME280;4072;42.668;23.396;2023-05-20T08:47:29;95349.00;;;22.68;54.77
8059;BME280;4072;42.668;23.396;2023-05-20T08:49:59;95351.50;;;22.48;55.24
8059;BME280;4072;42.668;23.396;2023-05-20T08:52:27;95345.41;;;22.55;54.21
8059;BME280;4072;42.668;23.396;2023-05-20T08:54:56;95343.38;;;22.98;53.46
8059;BME280;4072;42.668;23.396;2023-05-20T08:57:26;95350.00;;;22.89;55.82
8059;BME280;4072;42.668;23.396;2023-05-20T08:59:54;95342.56;;;22.84;54.10
8059;BME280;4072;42.668;23.396;2023-05-20T09:02:22;95328.53;;;22.58;54.14
8059;BME280;4072;42.668;23.396;2023-05-20T09:04:50;95336.47;;;22.67;54.36
8059;BME280;4072;42.668;23.396;2023-05-20T09:07:26;95338.91;;;22.52;53.63
8059;BME280;4072;42.668;23.396;2023-05-20T09:09:56;95337.38;;;22.57;55.46
8059;BME280;4072;42.668;23.396;2023-05-20T09:12:24;95327.16;;;22.46;55.15
8059;BME280;4072;42.668;23.396;2023-05-20T09:14:52;95335.13;;;22.55;56.40
8059;BME280;4072;42.668;23.396;2023-05-20T09:17:20;95314.84;;;22.47;54.74
8059;BME280;4072;42.668;23.396;2023-05-20T09:19:48;95320.19;;;22.69;56.60
8059;BME280;4072;42.668;23.396;2023-05-20T09:22:21;95315.31;;;22.75;54.38
8059;BME280;4072;42.668;23.396;2023-05-20T09:24:52;95324.56;;;22.59;56.22
8059;BME280;4072;42.668;23.396;2023-05-20T09:27:20;95318.59;;;22.55;56.47
8059;BME280;4072;42.668;23.396;2023-05-20T09:29:50;95317.63;;;22.71;56.60
8059;BME280;4072;42.668;23.396;2023-05-20T09:32:20;95296.09;;;22.88;55.38
8059;BME280;4072;42.668;23.396;2023-05-20T09:34:49;95310.28;;;23.35;55.01
8059;BME280;4072;42.668;23.396;2023-05-20T09:37:20;95313.25;;;23.37;55.00
8059;BME280;4072;42.668;23.396;2023-05-20T09:39:56;95300.59;;;23.29;55.10
8059;BME280;4072;42.668;23.396;2023-05-20T09:42:26;95300.78;;;22.93;56.31
8059;BME280;4072;42.668;23.396;2023-05-20T09:44:55;95301.31;;;23.11;57.10
8059;BME280;4072;42.668;23.396;2023-05-20T09:47:23;95297.28;;;23.12;57.17
8059;BME280;4072;42.668;23.396;2023-05-20T09:49:52;95297.66;;;23.21;57.21
8059;BME280;4072;42.668;23.396;2023-05-20T09:52:21;95295.38;;;23.44;56.95
8059;BME280;4072;42.668;23.396;2023-05-20T09:54:49;95275.97;;;23.31;56.79
8059;BME280;4072;42.668;23.396;2023-05-20T09:57:19;95292.66;;;23.20;53.02
8059;BME280;4072;42.668;23.396;2023-05-20T09:59:49;95281.19;;;23.16;55.11
8059;BME280;4072;42.668;23.396;2023-05-20T10:02:18;95263.34;;;23.17;52.20
8059;BME280;4072;42.668;23.396;2023-05-20T10:04:49;95278.94;;;23.33;54.50
8059;BME280;4072;42.668;23.396;2023-05-20T10:07:43;95274.50;;;23.30;53.18
8059;BME280;4072;42.668;23.396;2023-05-20T10:10:26;95274.50;;;23.30;53.77
8059;BME280;4072;42.668;23.396;2023-05-20T10:13:10;95272.03;;;23.26;55.44
8059;BME280;4072;42.668;23.396;2023-05-20T10:15:51;95259.88;;;22.79;51.74
8059;BME280;4072;42.668;23.396;2023-05-20T10:18:31;95247.81;;;22.82;50.96
8059;BME280;4072;42.668;23.396;2023-05-20T10:21:14;95249.03;;;23.00;51.74
8059;BME280;4072;42.668;23.396;2023-05-20T10:23:42;95249.56;;;23.17;50.28
8059;BME280;4072;42.668;23.396;2023-05-20T10:26:10;95256.56;;;23.18;47.33
8059;BME280;4072;42.668;23.396;2023-05-20T10:28:40;95247.94;;;22.89;48.80
8059;BME280;4072;42.668;23.396;2023-05-20T10:31:14;95203.94;;;22.60;48.76
8059;BME280;4072;42.668;23.396;2023-05-20T10:33:44;95248.59;;;22.96;47.46
8059;BME280;4072;42.668;23.396;2023-05-20T10:36:24;95248.53;;;23.01;48.04
8059;BME280;4072;42.668;23.396;2023-05-20T10:38:53;95204.25;;;22.56;47.44
8059;BME280;4072;42.668;23.396;2023-05-20T10:41:23;95236.31;;;22.78;48.28
8059;BME280;4072;42.668;23.396;2023-05-20T10:44:03;95218.13;;;22.69;49.78
8059;BME280;4072;42.668;23.396;2023-05-20T10:46:33;95240.56;;;22.79;48.46
8059;BME280;4072;42.668;23.396;2023-05-20T10:49:21;95226.16;;;23.05;49.59
8059;BME280;4072;42.668;23.396;2023-05-20T10:51:53;95186.34;;;22.81;47.77
8059;BME280;4072;42.668;23.396;2023-05-20T10:54:21;95221.81;;;23.09;48.22
8059;BME280;4072;42.668;23.396;2023-05-20T10:56:51;95224.47;;;23.15;48.78
8059;BME280;4072;42.668;23.396;2023-05-20T10:59:20;95219.41;;;23.19;47.83
8059;BME280;4072;42.668;23.396;2023-05-20T11:01:49;95216.00;;;23.13;47.37
8059;BME280;4072;42.668;23.396;2023-05-20T11:04:17;95210.50;;;22.94;47.06
8059;BME280;4072;42.668;23.396;2023-05-20T11:06:49;95209.22;;;22.95;45.70
8059;BME280;4072;42.668;23.396;2023-05-20T11:09:20;95200.22;;;22.95;45.89
8059;BME280;4072;42.668;23.396;2023-05-20T11:11:48;95197.53;;;22.89;46.23
8059;BME280;4072;42.668;23.396;2023-05-20T11:14:17;95190.41;;;22.80;46.21
8059;BME280;4072;42.668;23.396;2023-05-20T11:16:50;95157.97;;;22.49;45.67
8059;BME280;4072;42.668;23.396;2023-05-20T11:19:20;95205.34;;;23.04;46.95
8059;BME280;4072;42.668;23.396;2023-05-20T11:21:48;95195.84;;;23.18;45.97
8059;BME280;4072;42.668;23.396;2023-05-20T11:24:23;95168.59;;;22.96;47.31
8059;BME280;4072;42.668;23.396;2023-05-20T11:26:52;95177.22;;;23.24;46.49
8059;BME280;4072;42.668;23.396;2023-05-20T11:29:21;95163.03;;;23.14;45.05
8059;BME280;4072;42.668;23.396;2023-05-20T11:31:50;95198.00;;;23.25;44.83
8059;BME280;4072;42.668;23.396;2023-05-20T11:34:19;95184.34;;;23.32;45.23
8059;BME280;4072;42.668;23.396;2023-05-20T11:36:55;95179.44;;;23.25;45.47
8059;BME280;4072;42.668;23.396;2023-05-20T11:39:24;95163.00;;;23.33;44.13
8059;BME280;4072;42.668;23.396;2023-05-20T11:41:53;95168.78;;;23.48;44.90
8059;BME280;4072;42.668;23.396;2023-05-20T11:44:21;95175.66;;;23.10;45.15
8059;BME280;4072;42.668;23.396;2023-05-20T11:46:51;95152.59;;;22.75;46.28
8059;BME280;4072;42.668;23.396;2023-05-20T11:49:25;95163.22;;;23.03;46.10
8059;BME280;4072;42.668;23.396;2023-05-20T11:51:53;95163.66;;;23.07;44.88
8059;BME280;4072;42.668;23.396;2023-05-20T11:54:22;95166.69;;;22.91;48.39
8059;BME280;4072;42.668;23.396;2023-05-20T11:56:53;95176.34;;;22.97;47.88
8059;BME280;4072;42.668;23.396;2023-05-20T11:59:22;95168.47;;;23.20;48.35
8059;BME280;4072;42.668;23.396;2023-05-20T12:01:52;95166.75;;;23.17;51.20
8059;BME280;4072;42.668;23.396;2023-05-20T12:04:20;95161.38;;;22.92;51.23
8059;BME280;4072;42.668;23.396;2023-05-20T12:06:49;95151.34;;;22.76;50.38
8059;BME280;4072;42.668;23.396;2023-05-20T12:09:18;95153.09;;;22.92;52.43
8059;BME280;4072;42.668;23.396;2023-05-20T12:11:46;95148.44;;;22.69;53.04
8059;BME280;4072;42.668;23.396;2023-05-20T12:14:14;95107.59;;;22.12;54.46
8059;BME280;4072;42.668;23.396;2023-05-20T12:16:43;95143.44;;;22.30;53.72
8059;BME280;4072;42.668;23.396;2023-05-20T12:19:12;95169.94;;;22.33;54.86
8059;BME280;4072;42.668;23.396;2023-05-20T12:21:40;95166.66;;;22.16;55.21
8059;BME280;4072;42.668;23.396;2023-05-20T12:24:08;95135.41;;;21.66;55.48
8059;BME280;4072;42.668;23.396;2023-05-20T12:26:36;95182.47;;;21.92;56.31
8059;BME280;4072;42.668;23.396;2023-05-20T12:29:04;95161.97;;;21.39;56.77
8059;BME280;4072;42.668;23.396;2023-05-20T12:31:34;95168.41;;;20.77;55.91
8059;BME280;4072;42.668;23.396;2023-05-20T12:34:03;95173.78;;;20.64;57.45
8059;BME280;4072;42.668;23.396;2023-05-20T12:36:33;95205.91;;;20.80;58.55
8059;BME280;4072;42.668;23.396;2023-05-20T12:39:01;95196.94;;;20.74;58.57
8059;BME280;4072;42.668;23.396;2023-05-20T12:41:30;95173.59;;;20.92;54.33
8059;BME280;4072;42.668;23.396;2023-05-20T12:43:58;95181.72;;;21.08;51.72
8059;BME280;4072;42.668;23.396;2023-05-20T12:46:26;95205.06;;;21.31;53.27
8059;BME280;4072;42.668;23.396;2023-05-20T12:48:54;95125.06;;;20.59;62.60
8059;BME280;4072;42.668;23.396;2023-05-20T12:51:22;95192.19;;;21.15;63.25
8059;BME280;4072;42.668;23.396;2023-05-20T12:53:52;95184.44;;;21.43;56.27
8059;BME280;4072;42.668;23.396;2023-05-20T12:56:20;95182.84;;;21.53;55.36
8059;BME280;4072;42.668;23.396;2023-05-20T12:58:49;95175.75;;;21.63;58.45
8059;BME280;4072;42.668;23.396;2023-05-20T13:01:17;95158.31;;;21.79;58.45
8059;BME280;4072;42.668;23.396;2023-05-20T13:03:45;95166.03;;;22.05;57.79
8059;BME280;4072;42.668;23.396;2023-05-20T13:06:13;95163.97;;;22.29;58.44
8059;BME280;4072;42.668;23.396;2023-05-20T13:08:42;95156.72;;;22.50;54.20
8059;BME280;4072;42.668;23.396;2023-05-20T13:11:12;95153.91;;;22.32;52.25
8059;BME280;4072;42.668;23.396;2023-05-20T13:13:40;95148.97;;;22.67;52.75
8059;BME280;4072;42.668;23.396;2023-05-20T13:16:08;95155.44;;;22.51;52.71
8059;BME280;4072;42.668;23.396;2023-05-20T13:18:37;95124.81;;;22.18;54.21